sensor_id;sensor_type;location;lat;lon;timestamp;P1;durP1;ratioP1;P2;durP2;ratioP2
4391;SDS011;2210;51.938;8.488;2023-05-07T00:03:41;14.00;;;8.40;;
4391;SDS011;2210;51.938;8.488;2023-05-07T00:07:42;9.33;;;8.33;;
4391;SDS011;2210;51.938;8.488;2023-05-07T00:11:42;9.65;;;7.50;;
4391;SDS011;2210;51.938;8.488;2023-05-07T00:15:42;11.53;;;9.07;;
4391;SDS011;2210;51.938;8.488;2023-05-07T00:19:42;11.98;;;9.50;;
4391;SDS011;2210;51.938;8.488;2023-05-07T00:23:43;10.85;;;8.60;;
4391;SDS011;2210;51.938;8.488;2023-05-07T00:27:49;10.10;;;8.33;;
4391;SDS011;2210;51.938;8.488;2023-05-07T00:31:49;8.80;;;7.90;;
4391;SDS011;2210;51.938;8.488;2023-05-07T00:35:53;8.90;;;7.70;;
4391;SDS011;2210;51.938;8.488;2023-05-07T00:39:57;8.73;;;7.40;;
4391;SDS011;2210;51.938;8.488;2023-05-07T00:43:58;9.00;;;8.10;;
4391;SDS011;2210;51.938;8.488;2023-05-07T00:48:04;9.27;;;7.87;;
4391;SDS011;2210;51.938;8.488;2023-05-07T00:52:11;9.03;;;8.13;;
4391;SDS011;2210;51.938;8.488;2023-05-07T00:56:14;10.60;;;9.20;;
4391;SDS011;2210;51.938;8.488;2023-05-07T01:00:15;9.67;;;8.43;;
4391;SDS011;2210;51.938;8.488;2023-05-07T01:04:21;12.83;;;8.10;;
4391;SDS011;2210;51.938;8.488;2023-05-07T01:08:21;13.03;;;8.60;;
4391;SDS011;2210;51.938;8.488;2023-05-07T01:12:22;11.03;;;8.73;;
4391;SDS011;2210;51.938;8.488;2023-05-07T01:16:27;10.80;;;8.97;;
4391;SDS011;2210;51.938;8.488;2023-05-07T01:20:27;9.27;;;8.20;;
4391;SDS011;2210;51.938;8.488;2023-05-07T01:24:28;11.40;;;9.67;;
4391;SDS011;2210;51.938;8.488;2023-05-07T01:28:39;12.70;;;10.47;;
4391;SDS011;2210;51.938;8.488;2023-05-07T01:37:12;11.40;;;9.43;;
4391;SDS011;2210;51.938;8.488;2023-05-07T01:41:13;11.77;;;10.50;;
4391;SDS011;2210;51.938;8.488;2023-05-07T01:45:13;11.70;;;9.40;;
4391;SDS011;2210;51.938;8.488;2023-05-07T01:49:14;10.43;;;9.30;;
4391;SDS011;2210;51.938;8.488;2023-05-07T01:53:27;11.40;;;9.00;;
4391;SDS011;2210;51.938;8.488;2023-05-07T01:57:28;11.83;;;10.07;;
4391;SDS011;2210;51.938;8.488;2023-05-07T02:01:37;12.90;;;10.43;;
4391;SDS011;2210;51.938;8.488;2023-05-07T02:05:37;12.70;;;9.20;;
4391;SDS011;2210;51.938;8.488;2023-05-07T02:09:38;11.13;;;10.00;;
4391;SDS011;2210;51.938;8.488;2023-05-07T02:13:44;13.48;;;10.23;;
4391;SDS011;2210;51.938;8.488;2023-05-07T02:17:58;11.53;;;9.73;;
4391;SDS011;2210;51.938;8.488;2023-05-07T02:22:03;10.33;;;8.97;;
4391;SDS011;2210;51.938;8.488;2023-05-07T02:26:03;11.37;;;9.60;;
4391;SDS011;2210;51.938;8.488;2023-05-07T02:30:04;12.50;;;11.20;;
4391;SDS011;2210;51.938;8.488;2023-05-07T02:34:05;14.33;;;11.00;;
4391;SDS011;2210;51.938;8.488;2023-05-07T02:38:11;12.73;;;11.00;;
4391;SDS011;2210;51.938;8.488;2023-05-07T02:42:11;13.60;;;10.80;;
4391;SDS011;2210;51.938;8.488;2023-05-07T02:46:11;12.48;;;10.45;;
4391;SDS011;2210;51.938;8.488;2023-05-07T02:50:12;11.93;;;9.30;;
4391;SDS011;2210;51.938;8.488;2023-05-07T02:54:15;13.13;;;11.73;;
4391;SDS011;2210;51.938;8.488;2023-05-07T02:58:16;12.83;;;11.37;;
4391;SDS011;2210;51.938;8.488;2023-05-07T03:02:16;19.63;;;11.45;;
4391;SDS011;2210;51.938;8.488;2023-05-07T03:06:16;11.40;;;9.37;;
4391;SDS011;2210;51.938;8.488;2023-05-07T03:10:16;13.20;;;11.45;;
4391;SDS011;2210;51.938;8.488;2023-05-07T03:14:17;11.47;;;10.27;;
4391;SDS011;2210;51.938;8.488;2023-05-07T03:18:20;12.73;;;11.43;;
4391;SDS011;2210;51.938;8.488;2023-05-07T03:22:20;14.30;;;12.07;;
4391;SDS011;2210;51.938;8.488;2023-05-07T03:26:21;15.90;;;10.70;;
4391;SDS011;2210;51.938;8.488;2023-05-07T03:30:24;14.20;;;10.90;;
4391;SDS011;2210;51.938;8.488;2023-05-07T03:34:27;12.50;;;10.97;;
4391;SDS011;2210;51.938;8.488;2023-05-07T03:38:31;15.80;;;12.33;;
4391;SDS011;2210;51.938;8.488;2023-05-07T03:42:31;12.63;;;11.43;;
4391;SDS011;2210;51.938;8.488;2023-05-07T03:46:31;11.77;;;10.60;;
4391;SDS011;2210;51.938;8.488;2023-05-07T03:50:32;12.73;;;10.70;;
4391;SDS011;2210;51.938;8.488;2023-05-07T03:54:39;13.30;;;11.40;;
4391;SDS011;2210;51.938;8.488;2023-05-07T03:58:39;12.33;;;10.93;;
4391;SDS011;2210;51.938;8.488;2023-05-07T04:02:39;12.50;;;10.60;;
4391;SDS011;2210;51.938;8.488;2023-05-07T04:06:42;12.68;;;10.57;;
4391;SDS011;2210;51.938;8.488;2023-05-07T04:10:43;14.13;;;10.57;;
4391;SDS011;2210;51.938;8.488;2023-05-07T04:14:43;13.50;;;12.10;;
4391;SDS011;2210;51.938;8.488;2023-05-07T04:18:43;14.88;;;11.80;;
4391;SDS011;2210;51.938;8.488;2023-05-07T04:22:43;12.57;;;10.68;;
4391;SDS011;2210;51.938;8.488;2023-05-07T04:26:44;14.43;;;12.10;;
4391;SDS011;2210;51.938;8.488;2023-05-07T04:30:47;14.07;;;11.70;;
4391;SDS011;2210;51.938;8.488;2023-05-07T04:34:47;13.10;;;11.80;;
4391;SDS011;2210;51.938;8.488;2023-05-07T04:38:54;15.23;;;11.90;;
4391;SDS011;2210;51.938;8.488;2023-05-07T04:42:54;13.33;;;11.17;;
4391;SDS011;2210;51.938;8.488;2023-05-07T04:46:55;14.03;;;11.70;;
4391;SDS011;2210;51.938;8.488;2023-05-07T04:50:55;12.77;;;11.45;;
4391;SDS011;2210;51.938;8.488;2023-05-07T04:54:55;12.10;;;10.90;;
4391;SDS011;2210;51.938;8.488;2023-05-07T04:58:58;13.82;;;11.43;;
4391;SDS011;2210;51.938;8.488;2023-05-07T05:02:59;12.07;;;10.87;;
4391;SDS011;2210;51.938;8.488;2023-05-07T05:07:02;16.80;;;11.27;;
4391;SDS011;2210;51.938;8.488;2023-05-07T05:11:04;13.10;;;11.57;;
4391;SDS011;2210;51.938;8.488;2023-05-07T05:15:04;15.07;;;13.33;;
4391;SDS011;2210;51.938;8.488;2023-05-07T05:19:05;15.13;;;11.80;;
4391;SDS011;2210;51.938;8.488;2023-05-07T05:23:05;13.37;;;11.97;;
4391;SDS011;2210;51.938;8.488;2023-05-07T05:27:06;14.67;;;11.47;;
4391;SDS011;2210;51.938;8.488;2023-05-07T05:31:09;13.65;;;12.18;;
4391;SDS011;2210;51.938;8.488;2023-05-07T05:35:09;14.60;;;11.27;;
4391;SDS011;2210;51.938;8.488;2023-05-07T05:39:09;13.87;;;12.00;;
4391;SDS011;2210;51.938;8.488;2023-05-07T05:43:09;14.57;;;10.80;;
4391;SDS011;2210;51.938;8.488;2023-05-07T05:47:13;14.50;;;12.00;;
4391;SDS011;2210;51.938;8.488;2023-05-07T05:51:13;15.83;;;12.63;;
4391;SDS011;2210;51.938;8.488;2023-05-07T05:55:14;17.58;;;12.10;;
4391;SDS011;2210;51.938;8.488;2023-05-07T06:03:39;14.50;;;12.50;;
4391;SDS011;2210;51.938;8.488;2023-05-07T06:07:43;13.77;;;11.47;;
4391;SDS011;2210;51.938;8.488;2023-05-07T06:11:46;15.73;;;12.63;;
4391;SDS011;2210;51.938;8.488;2023-05-07T06:15:46;17.07;;;11.33;;
4391;SDS011;2210;51.938;8.488;2023-05-07T06:19:47;15.00;;;12.27;;
4391;SDS011;2210;51.938;8.488;2023-05-07T06:23:50;16.20;;;12.50;;
4391;SDS011;2210;51.938;8.488;2023-05-07T06:27:52;13.83;;;12.33;;
4391;SDS011;2210;51.938;8.488;2023-05-07T06:31:52;14.45;;;12.18;;
4391;SDS011;2210;51.938;8.488;2023-05-07T06:35:53;14.60;;;13.10;;
4391;SDS011;2210;51.938;8.488;2023-05-07T06:39:53;14.00;;;12.43;;
4391;SDS011;2210;51.938;8.488;2023-05-07T06:43:53;14.90;;;12.30;;
4391;SDS011;2210;51.938;8.488;2023-05-07T06:47:54;15.43;;;11.48;;
4391;SDS011;2210;51.938;8.488;2023-05-07T06:51:57;12.05;;;10.85;;
4391;SDS011;2210;51.938;8.488;2023-05-07T06:56:04;11.57;;;9.83;;
4391;SDS011;2210;51.938;8.488;2023-05-07T07:00:04;11.83;;;10.60;;
4391;SDS011;2210;51.938;8.488;2023-05-07T07:04:08;12.87;;;10.30;;
4391;SDS011;2210;51.938;8.488;2023-05-07T07:08:11;10.90;;;9.80;;
4391;SDS011;2210;51.938;8.488;2023-05-07T07:12:12;14.70;;;11.07;;
4391;SDS011;2210;51.938;8.488;2023-05-07T07:16:12;16.73;;;10.77;;
4391;SDS011;2210;51.938;8.488;2023-05-07T07:20:12;16.57;;;9.03;;
4391;SDS011;2210;51.938;8.488;2023-05-07T07:24:13;9.70;;;8.50;;
4391;SDS011;2210;51.938;8.488;2023-05-07T07:28:20;9.50;;;8.50;;
4391;SDS011;2210;51.938;8.488;2023-05-07T07:32:27;9.00;;;7.93;;
4391;SDS011;2210;51.938;8.488;2023-05-07T07:36:27;11.63;;;9.23;;
4391;SDS011;2210;51.938;8.488;2023-05-07T07:40:27;9.60;;;8.13;;
4391;SDS011;2210;51.938;8.488;2023-05-07T07:44:40;9.60;;;8.50;;
4391;SDS011;2210;51.938;8.488;2023-05-07T07:48:43;13.93;;;8.30;;
4391;SDS011;2210;51.938;8.488;2023-05-07T07:52:43;7.87;;;7.07;;
4391;SDS011;2210;51.938;8.488;2023-05-07T07:56:44;7.93;;;7.23;;
4391;SDS011;2210;51.938;8.488;2023-05-07T08:00:47;8.30;;;7.50;;
4391;SDS011;2210;51.938;8.488;2023-05-07T08:04:48;8.10;;;7.20;;
4391;SDS011;2210;51.938;8.488;2023-05-07T08:08:48;8.73;;;6.88;;
4391;SDS011;2210;51.938;8.488;2023-05-07T08:12:49;7.70;;;6.90;;
4391;SDS011;2210;51.938;8.488;2023-05-07T08:16:52;7.73;;;7.00;;
4391;SDS011;2210;51.938;8.488;2023-05-07T08:20:56;7.53;;;6.73;;
4391;SDS011;2210;51.938;8.488;2023-05-07T08:24:56;8.13;;;7.20;;
4391;SDS011;2210;51.938;8.488;2023-05-07T08:28:57;7.40;;;6.70;;
4391;SDS011;2210;51.938;8.488;2023-05-07T08:32:57;6.43;;;5.80;;
4391;SDS011;2210;51.938;8.488;2023-05-07T08:36:57;7.15;;;5.90;;
4391;SDS011;2210;51.938;8.488;2023-05-07T08:40:57;7.30;;;6.53;;
4391;SDS011;2210;51.938;8.488;2023-05-07T08:44:58;7.40;;;6.70;;
4391;SDS011;2210;51.938;8.488;2023-05-07T08:49:06;7.17;;;5.50;;
4391;SDS011;2210;51.938;8.488;2023-05-07T08:53:07;7.57;;;5.90;;
4391;SDS011;2210;51.938;8.488;2023-05-07T08:57:13;5.67;;;5.17;;
4391;SDS011;2210;51.938;8.488;2023-05-07T09:01:14;5.73;;;5.23;;
4391;SDS011;2210;51.938;8.488;2023-05-07T09:05:16;8.90;;;6.00;;
4391;SDS011;2210;51.938;8.488;2023-05-07T09:09:19;7.37;;;5.90;;
4391;SDS011;2210;51.938;8.488;2023-05-07T09:13:24;5.47;;;4.97;;
4391;SDS011;2210;51.938;8.488;2023-05-07T09:17:25;5.90;;;5.27;;
4391;SDS011;2210;51.938;8.488;2023-05-07T09:21:25;8.03;;;5.80;;
4391;SDS011;2210;51.938;8.488;2023-05-07T09:25:29;6.00;;;5.40;;
4391;SDS011;2210;51.938;8.488;2023-05-07T09:29:33;6.80;;;6.20;;
4391;SDS011;2210;51.938;8.488;2023-05-07T09:33:41;5.60;;;5.10;;
4391;SDS011;2210;51.938;8.488;2023-05-07T09:37:42;6.10;;;5.50;;
4391;SDS011;2210;51.938;8.488;2023-05-07T09:41:46;7.03;;;6.33;;
4391;SDS011;2210;51.938;8.488;2023-05-07T09:45:47;6.00;;;5.40;;
4391;SDS011;2210;51.938;8.488;2023-05-07T09:49:52;6.37;;;5.77;;
4391;SDS011;2210;51.938;8.488;2023-05-07T09:53:57;6.80;;;5.80;;
4391;SDS011;2210;51.938;8.488;2023-05-07T09:58:00;6.17;;;5.57;;
4391;SDS011;2210;51.938;8.488;2023-05-07T10:02:03;6.27;;;5.23;;
4391;SDS011;2210;51.938;8.488;2023-05-07T10:06:04;6.17;;;5.37;;
4391;SDS011;2210;51.938;8.488;2023-05-07T10:10:05;6.00;;;5.40;;
4391;SDS011;2210;51.938;8.488;2023-05-07T10:14:06;7.03;;;6.33;;
4391;SDS011;2210;51.938;8.488;2023-05-07T10:18:07;6.67;;;5.20;;
4391;SDS011;2210;51.938;8.488;2023-05-07T10:22:08;6.70;;;6.10;;
4391;SDS011;2210;51.938;8.488;2023-05-07T10:26:09;7.10;;;6.13;;
4391;SDS011;2210;51.938;8.488;2023-05-07T10:34:42;6.87;;;6.27;;
4391;SDS011;2210;51.938;8.488;2023-05-07T10:38:46;5.60;;;5.07;;
4391;SDS011;2210;51.938;8.488;2023-05-07T10:42:53;6.00;;;5.43;;
4391;SDS011;2210;51.938;8.488;2023-05-07T10:47:06;6.30;;;5.23;;
4391;SDS011;2210;51.938;8.488;2023-05-07T10:51:19;6.20;;;5.57;;
4391;SDS011;2210;51.938;8.488;2023-05-07T10:55:21;7.07;;;6.37;;
4391;SDS011;2210;51.938;8.488;2023-05-07T11:03:30;6.30;;;5.50;;
4391;SDS011;2210;51.938;8.488;2023-05-07T11:07:30;6.10;;;4.80;;
4391;SDS011;2210;51.938;8.488;2023-05-07T11:11:46;5.90;;;4.83;;
4391;SDS011;2210;51.938;8.488;2023-05-07T11:15:48;5.37;;;4.87;;
4391;SDS011;2210;51.938;8.488;2023-05-07T11:19:55;6.43;;;5.83;;
4391;SDS011;2210;51.938;8.488;2023-05-07T11:23:56;4.70;;;4.20;;
4391;SDS011;2210;51.938;8.488;2023-05-07T11:28:03;5.07;;;4.57;;
4391;SDS011;2210;51.938;8.488;2023-05-07T11:32:12;7.57;;;4.97;;
4391;SDS011;2210;51.938;8.488;2023-05-07T11:36:12;5.57;;;4.47;;
4391;SDS011;2210;51.938;8.488;2023-05-07T11:40:13;4.70;;;4.30;;
4391;SDS011;2210;51.938;8.488;2023-05-07T11:44:13;4.77;;;3.77;;
4391;SDS011;2210;51.938;8.488;2023-05-07T11:48:14;5.10;;;4.43;;
4391;SDS011;2210;51.938;8.488;2023-05-07T11:52:21;4.60;;;3.97;;
4391;SDS011;2210;51.938;8.488;2023-05-07T11:56:26;4.67;;;3.90;;
4391;SDS011;2210;51.938;8.488;2023-05-07T12:00:32;3.80;;;3.50;;
4391;SDS011;2210;51.938;8.488;2023-05-07T12:04:32;5.77;;;3.93;;
4391;SDS011;2210;51.938;8.488;2023-05-07T12:08:33;4.40;;;4.00;;
4391;SDS011;2210;51.938;8.488;2023-05-07T12:12:40;4.07;;;3.67;;
4391;SDS011;2210;51.938;8.488;2023-05-07T12:16:41;5.30;;;3.50;;
4391;SDS011;2210;51.938;8.488;2023-05-07T12:20:43;3.60;;;3.30;;
4391;SDS011;2210;51.938;8.488;2023-05-07T12:24:48;3.90;;;3.50;;
4391;SDS011;2210;51.938;8.488;2023-05-07T12:28:58;3.60;;;3.30;;
4391;SDS011;2210;51.938;8.488;2023-05-07T12:32:58;3.78;;;3.47;;
4391;SDS011;2210;51.938;8.488;2023-05-07T12:37:01;3.30;;;3.00;;
4391;SDS011;2210;51.938;8.488;2023-05-07T12:41:07;3.93;;;2.93;;
4391;SDS011;2210;51.938;8.488;2023-05-07T12:45:11;5.10;;;3.57;;
4391;SDS011;2210;51.938;8.488;2023-05-07T12:49:16;3.20;;;2.90;;
4391;SDS011;2210;51.938;8.488;2023-05-07T12:53:19;2.90;;;2.63;;
4391;SDS011;2210;51.938;8.488;2023-05-07T12:57:20;4.03;;;3.40;;
4391;SDS011;2210;51.938;8.488;2023-05-07T13:01:28;3.03;;;2.78;;
4391;SDS011;2210;51.938;8.488;2023-05-07T13:05:29;3.33;;;3.00;;
4391;SDS011;2210;51.938;8.488;2023-05-07T13:09:33;3.70;;;3.40;;
4391;SDS011;2210;51.938;8.488;2023-05-07T13:13:34;3.23;;;2.93;;
4391;SDS011;2210;51.938;8.488;2023-05-07T13:17:35;3.30;;;3.03;;
4391;SDS011;2210;51.938;8.488;2023-05-07T13:21:35;3.65;;;3.08;;
4391;SDS011;2210;51.938;8.488;2023-05-07T13:25:36;3.83;;;3.05;;
4391;SDS011;2210;51.938;8.488;2023-05-07T13:29:45;3.00;;;2.70;;
4391;SDS011;2210;51.938;8.488;2023-05-07T13:33:45;3.23;;;2.93;;
4391;SDS011;2210;51.938;8.488;2023-05-07T13:37:45;5.88;;;3.00;;
4391;SDS011;2210;51.938;8.488;2023-05-07T13:41:46;3.15;;;2.85;;
4391;SDS011;2210;51.938;8.488;2023-05-07T13:45:46;5.53;;;2.80;;
4391;SDS011;2210;51.938;8.488;2023-05-07T13:49:46;4.03;;;3.23;;
4391;SDS011;2210;51.938;8.488;2023-05-07T13:53:49;4.00;;;3.30;;
4391;SDS011;2210;51.938;8.488;2023-05-07T13:57:57;3.13;;;2.93;;
4391;SDS011;2210;51.938;8.488;2023-05-07T14:02:01;2.97;;;2.67;;
4391;SDS011;2210;51.938;8.488;2023-05-07T14:06:01;3.37;;;3.07;;
4391;SDS011;2210;51.938;8.488;2023-05-07T14:10:01;2.70;;;2.50;;
4391;SDS011;2210;51.938;8.488;2023-05-07T14:14:02;4.03;;;3.27;;
4391;SDS011;2210;51.938;8.488;2023-05-07T14:18:02;4.47;;;3.63;;
4391;SDS011;2210;51.938;8.488;2023-05-07T14:22:03;4.40;;;3.00;;
4391;SDS011;2210;51.938;8.488;2023-05-07T14:26:03;5.13;;;3.53;;
4391;SDS011;2210;51.938;8.488;2023-05-07T14:30:04;4.13;;;3.83;;
4391;SDS011;2210;51.938;8.488;2023-05-07T14:34:04;4.87;;;4.43;;
4391;SDS011;2210;51.938;8.488;2023-05-07T14:38:05;5.27;;;4.60;;
4391;SDS011;2210;51.938;8.488;2023-05-07T14:42:05;6.28;;;4.18;;
4391;SDS011;2210;51.938;8.488;2023-05-07T14:46:07;6.27;;;5.00;;
4391;SDS011;2210;51.938;8.488;2023-05-07T14:50:07;4.90;;;4.50;;
4391;SDS011;2210;51.938;8.488;2023-05-07T14:54:08;4.93;;;4.43;;
4391;SDS011;2210;51.938;8.488;2023-05-07T14:58:08;6.33;;;5.10;;
4391;SDS011;2210;51.938;8.488;2023-05-07T15:02:11;5.97;;;5.40;;
4391;SDS011;2210;51.938;8.488;2023-05-07T15:06:11;7.67;;;4.70;;
4391;SDS011;2210;51.938;8.488;2023-05-07T15:10:11;5.45;;;4.80;;
4391;SDS011;2210;51.938;8.488;2023-05-07T15:14:12;6.23;;;5.63;;
4391;SDS011;2210;51.938;8.488;2023-05-07T15:18:12;9.03;;;5.67;;
4391;SDS011;2210;51.938;8.488;2023-05-07T15:22:13;5.90;;;5.20;;
4391;SDS011;2210;51.938;8.488;2023-05-07T15:26:13;7.07;;;6.37;;
4391;SDS011;2210;51.938;8.488;2023-05-07T15:30:13;5.93;;;5.33;;
4391;SDS011;2210;51.938;8.488;2023-05-07T15:34:14;5.10;;;4.70;;
4391;SDS011;2210;51.938;8.488;2023-05-07T15:38:15;5.70;;;5.10;;
4391;SDS011;2210;51.938;8.488;2023-05-07T15:42:15;5.87;;;5.27;;
4391;SDS011;2210;51.938;8.488;2023-05-07T15:46:23;6.07;;;5.50;;
4391;SDS011;2210;51.938;8.488;2023-05-07T15:50:24;6.47;;;5.30;;
4391;SDS011;2210;51.938;8.488;2023-05-07T15:54:25;5.97;;;5.30;;
4391;SDS011;2210;51.938;8.488;2023-05-07T15:58:25;7.43;;;6.00;;
4391;SDS011;2210;51.938;8.488;2023-05-07T16:02:26;5.60;;;5.10;;
4391;SDS011;2210;51.938;8.488;2023-05-07T16:06:26;5.40;;;4.77;;
4391;SDS011;2210;51.938;8.488;2023-05-07T16:10:27;7.03;;;5.30;;
4391;SDS011;2210;51.938;8.488;2023-05-07T16:14:27;6.43;;;5.90;;
4391;SDS011;2210;51.938;8.488;2023-05-07T16:18:27;7.67;;;6.87;;
4391;SDS011;2210;51.938;8.488;2023-05-07T16:22:28;6.60;;;6.00;;
4391;SDS011;2210;51.938;8.488;2023-05-07T16:26:31;7.90;;;6.43;;
4391;SDS011;2210;51.938;8.488;2023-05-07T16:30:31;7.60;;;6.90;;
4391;SDS011;2210;51.938;8.488;2023-05-07T16:34:32;7.20;;;6.33;;
4391;SDS011;2210;51.938;8.488;2023-05-07T16:38:32;6.53;;;5.93;;
4391;SDS011;2210;51.938;8.488;2023-05-07T16:42:33;6.87;;;6.20;;
4391;SDS011;2210;51.938;8.488;2023-05-07T16:46:34;6.13;;;5.50;;
4391;SDS011;2210;51.938;8.488;2023-05-07T16:50:35;8.40;;;5.30;;
4391;SDS011;2210;51.938;8.488;2023-05-07T16:54:38;7.50;;;5.83;;
4391;SDS011;2210;51.938;8.488;2023-05-07T16:58:41;6.40;;;5.80;;
4391;SDS011;2210;51.938;8.488;2023-05-07T17:02:42;6.43;;;5.73;;
4391;SDS011;2210;51.938;8.488;2023-05-07T17:06:42;7.57;;;5.60;;
4391;SDS011;2210;51.938;8.488;2023-05-07T17:10:42;6.47;;;5.88;;
4391;SDS011;2210;51.938;8.488;2023-05-07T17:14:44;6.17;;;5.57;;
4391;SDS011;2210;51.938;8.488;2023-05-07T17:18:44;6.15;;;5.55;;
4391;SDS011;2210;51.938;8.488;2023-05-07T17:22:45;6.30;;;5.67;;
4391;SDS011;2210;51.938;8.488;2023-05-07T17:26:46;6.03;;;5.50;;
4391;SDS011;2210;51.938;8.488;2023-05-07T17:30:47;5.57;;;5.07;;
4391;SDS011;2210;51.938;8.488;2023-05-07T17:34:47;6.20;;;5.60;;
4391;SDS011;2210;51.938;8.488;2023-05-07T17:38:48;6.00;;;5.20;;
4391;SDS011;2210;51.938;8.488;2023-05-07T17:42:48;5.85;;;5.35;;
4391;SDS011;2210;51.938;8.488;2023-05-07T17:46:52;6.07;;;5.47;;
4391;SDS011;2210;51.938;8.488;2023-05-07T17:51:00;5.10;;;4.70;;
4391;SDS011;2210;51.938;8.488;2023-05-07T17:55:01;5.00;;;4.53;;
4391;SDS011;2210;51.938;8.488;2023-05-07T17:59:02;6.03;;;5.40;;
4391;SDS011;2210;51.938;8.488;2023-05-07T18:03:02;5.57;;;5.15;;
4391;SDS011;2210;51.938;8.488;2023-05-07T18:07:03;5.40;;;5.00;;
4391;SDS011;2210;51.938;8.488;2023-05-07T18:11:07;6.20;;;5.57;;
4391;SDS011;2210;51.938;8.488;2023-05-07T18:15:07;6.40;;;5.03;;
4391;SDS011;2210;51.938;8.488;2023-05-07T18:19:08;5.43;;;4.83;;
4391;SDS011;2210;51.938;8.488;2023-05-07T18:23:11;5.33;;;4.83;;
4391;SDS011;2210;51.938;8.488;2023-05-07T18:27:11;5.50;;;4.93;;
4391;SDS011;2210;51.938;8.488;2023-05-07T18:31:12;5.07;;;4.67;;
4391;SDS011;2210;51.938;8.488;2023-05-07T18:35:15;5.63;;;5.17;;
4391;SDS011;2210;51.938;8.488;2023-05-07T18:39:16;5.33;;;4.83;;
4391;SDS011;2210;51.938;8.488;2023-05-07T18:52:30;5.67;;;4.70;;
4391;SDS011;2210;51.938;8.488;2023-05-07T18:56:33;5.40;;;4.90;;
4391;SDS011;2210;51.938;8.488;2023-05-07T19:00:43;6.73;;;5.60;;
4391;SDS011;2210;51.938;8.488;2023-05-07T19:04:43;5.57;;;5.07;;
4391;SDS011;2210;51.938;8.488;2023-05-07T19:08:49;5.03;;;4.53;;
4391;SDS011;2210;51.938;8.488;2023-05-07T19:12:53;5.93;;;5.43;;
4391;SDS011;2210;51.938;8.488;2023-05-07T19:16:54;5.97;;;5.47;;
4391;SDS011;2210;51.938;8.488;2023-05-07T19:20:55;6.00;;;5.50;;
4391;SDS011;2210;51.938;8.488;2023-05-07T19:24:59;5.70;;;5.20;;
4391;SDS011;2210;51.938;8.488;2023-05-07T19:28:59;6.53;;;5.93;;
4391;SDS011;2210;51.938;8.488;2023-05-07T19:33:06;5.30;;;4.80;;
4391;SDS011;2210;51.938;8.488;2023-05-07T19:37:06;6.07;;;5.57;;
4391;SDS011;2210;51.938;8.488;2023-05-07T19:41:07;6.07;;;5.57;;
4391;SDS011;2210;51.938;8.488;2023-05-07T19:45:13;6.30;;;5.80;;
4391;SDS011;2210;51.938;8.488;2023-05-07T19:49:14;6.10;;;5.60;;
4391;SDS011;2210;51.938;8.488;2023-05-07T19:53:20;6.43;;;5.83;;
4391;SDS011;2210;51.938;8.488;2023-05-07T19:57:21;5.93;;;5.43;;
4391;SDS011;2210;51.938;8.488;2023-05-07T20:01:21;7.00;;;5.90;;
4391;SDS011;2210;51.938;8.488;2023-05-07T20:05:21;5.82;;;5.30;;
4391;SDS011;2210;51.938;8.488;2023-05-07T20:09:21;5.53;;;4.93;;
4391;SDS011;2210;51.938;8.488;2023-05-07T20:13:22;5.83;;;5.33;;
4391;SDS011;2210;51.938;8.488;2023-05-07T20:17:31;5.90;;;5.40;;
4391;SDS011;2210;51.938;8.488;2023-05-07T20:21:43;5.23;;;4.83;;
4391;SDS011;2210;51.938;8.488;2023-05-07T20:25:45;4.90;;;4.50;;
4391;SDS011;2210;51.938;8.488;2023-05-07T20:34:09;4.70;;;4.40;;
4391;SDS011;2210;51.938;8.488;2023-05-07T20:38:10;5.40;;;4.90;;
4391;SDS011;2210;51.938;8.488;2023-05-07T20:42:10;5.30;;;4.67;;
4391;SDS011;2210;51.938;8.488;2023-05-07T20:46:11;4.60;;;4.20;;
4391;SDS011;2210;51.938;8.488;2023-05-07T20:50:14;4.18;;;3.70;;
4391;SDS011;2210;51.938;8.488;2023-05-07T20:54:15;4.70;;;4.30;;
4391;SDS011;2210;51.938;8.488;2023-05-07T20:58:18;5.17;;;4.27;;
4391;SDS011;2210;51.938;8.488;2023-05-07T21:02:27;4.03;;;3.60;;
4391;SDS011;2210;51.938;8.488;2023-05-07T21:06:28;4.50;;;4.20;;
4391;SDS011;2210;51.938;8.488;2023-05-07T21:10:28;4.68;;;4.32;;
4391;SDS011;2210;51.938;8.488;2023-05-07T21:14:31;4.22;;;3.92;;
4391;SDS011;2210;51.938;8.488;2023-05-07T21:18:35;4.13;;;3.83;;
4391;SDS011;2210;51.938;8.488;2023-05-07T21:22:35;4.70;;;4.40;;
4391;SDS011;2210;51.938;8.488;2023-05-07T21:27:00;4.77;;;4.37;;
4391;SDS011;2210;51.938;8.488;2023-05-07T21:31:13;4.60;;;4.20;;
4391;SDS011;2210;51.938;8.488;2023-05-07T21:35:14;4.87;;;4.47;;
4391;SDS011;2210;51.938;8.488;2023-05-07T21:39:14;5.63;;;4.63;;
4391;SDS011;2210;51.938;8.488;2023-05-07T21:43:21;4.80;;;4.40;;
4391;SDS011;2210;51.938;8.488;2023-05-07T21:47:21;5.77;;;4.40;;
4391;SDS011;2210;51.938;8.488;2023-05-07T21:51:21;5.07;;;4.60;;
4391;SDS011;2210;51.938;8.488;2023-05-07T21:55:22;4.43;;;4.03;;
4391;SDS011;2210;51.938;8.488;2023-05-07T21:59:22;4.37;;;3.97;;
4391;SDS011;2210;51.938;8.488;2023-05-07T22:03:22;5.50;;;4.50;;
4391;SDS011;2210;51.938;8.488;2023-05-07T22:07:23;4.57;;;4.17;;
4391;SDS011;2210;51.938;8.488;2023-05-07T22:11:23;7.37;;;4.57;;
4391;SDS011;2210;51.938;8.488;2023-05-07T22:19:45;5.10;;;4.70;;
4391;SDS011;2210;51.938;8.488;2023-05-07T22:23:59;4.27;;;3.97;;
4391;SDS011;2210;51.938;8.488;2023-05-07T22:27:59;4.57;;;4.17;;
4391;SDS011;2210;51.938;8.488;2023-05-07T22:32:00;5.40;;;4.50;;
4391;SDS011;2210;51.938;8.488;2023-05-07T22:36:03;4.03;;;3.72;;
4391;SDS011;2210;51.938;8.488;2023-05-07T22:40:07;4.10;;;3.80;;
4391;SDS011;2210;51.938;8.488;2023-05-07T22:44:07;4.63;;;4.23;;
4391;SDS011;2210;51.938;8.488;2023-05-07T22:48:07;4.22;;;3.83;;
4391;SDS011;2210;51.938;8.488;2023-05-07T22:52:11;4.57;;;4.17;;
4391;SDS011;2210;51.938;8.488;2023-05-07T22:56:14;4.97;;;4.57;;
4391;SDS011;2210;51.938;8.488;2023-05-07T23:00:17;4.43;;;3.77;;
4391;SDS011;2210;51.938;8.488;2023-05-07T23:04:21;4.00;;;3.60;;
4391;SDS011;2210;51.938;8.488;2023-05-07T23:08:24;5.23;;;3.93;;
4391;SDS011;2210;51.938;8.488;2023-05-07T23:12:30;4.83;;;4.33;;
4391;SDS011;2210;51.938;8.488;2023-05-07T23:16:31;4.47;;;4.07;;
4391;SDS011;2210;51.938;8.488;2023-05-07T23:20:37;4.00;;;3.60;;
4391;SDS011;2210;51.938;8.488;2023-05-07T23:24:43;6.23;;;3.40;;
4391;SDS011;2210;51.938;8.488;2023-05-07T23:28:46;4.47;;;4.07;;
4391;SDS011;2210;51.938;8.488;2023-05-07T23:32:49;3.80;;;3.50;;
4391;SDS011;2210;51.938;8.488;2023-05-07T23:36:53;4.23;;;3.90;;
4391;SDS011;2210;51.938;8.488;2023-05-07T23:40:53;4.17;;;3.87;;
4391;SDS011;2210;51.938;8.488;2023-05-07T23:44:53;3.40;;;3.10;;
4391;SDS011;2210;51.938;8.488;2023-05-07T23:49:00;4.23;;;3.83;;
4391;SDS011;2210;51.938;8.488;2023-05-07T23:53:00;3.90;;;3.60;;
4391;SDS011;2210;51.938;8.488;2023-05-07T23:57:03;3.93;;;3.63;;
